Time;durP1;ratioP1;P1;durP2;ratioP2;P2;SDS_P1;SDS_P2;PMS_P1;PMS_P2;Temp;Humidity;BMP_temperature;BMP_pressure;BME280_temperature;BME280_humidity;BME280_pressure;Samples;Min_cycle;Max_cycle;Signal;HPM_P1;HPM_P2
2023/03/11 00:02:09;;;;;;;13.65;12.75;;;;;;;9.53;nan;96586.69;5011853;28;20137;-61
2023/03/11 00:04:35;;;;;;;12.35;11.55;;;;;;;9.40;nan;96565.16;5012100;28;20051;-60
2023/03/11 00:07:01;;;;;;;14.73;13.52;;;;;;;9.50;nan;96591.97;5012536;28;20103;-60
2023/03/11 00:09:27;;;;;;;14.57;13.57;;;;;;;9.55;nan;96590.00;5011661;28;20049;-61
2023/03/11 00:11:52;;;;;;;13.10;12.23;;;;;;;9.50;nan;96576.63;5011142;28;20180;-60
2023/03/11 00:14:18;;;;;;;14.33;13.33;;;;;;;9.53;nan;96567.94;5009689;28;20042;-60
2023/03/11 00:16:44;;;;;;;13.13;12.27;;;;;;;9.51;nan;96555.22;5011113;28;20048;-61
2023/03/11 00:19:10;;;;;;;14.40;13.30;;;;;;;9.49;nan;96564.72;5012375;28;20136;-61
2023/03/11 00:21:36;;;;;;;27.40;25.80;;;;;;;9.54;nan;96567.88;5011633;28;20492;-60
2023/03/11 00:24:02;;;;;;;21.40;20.13;;;;;;;9.49;nan;96562.16;5010462;28;20474;-60
2023/03/11 00:26:28;;;;;;;21.95;20.73;;;;;;;9.39;nan;96547.31;5019575;28;20537;-61
2023/03/11 00:28:54;;;;;;;22.70;21.33;;;;;;;9.38;nan;96566.09;5011500;28;20409;-60
2023/03/11 00:31:21;;;;;;;18.23;17.15;;;;;;;9.35;nan;96545.81;5011886;28;20600;-61
2023/03/11 00:33:47;;;;;;;24.83;22.90;;;;;;;9.41;nan;96564.25;5011777;28;20046;-60
2023/03/11 00:36:32;;;;;;;19.70;18.55;;;;;;;9.40;nan;96554.91;5010638;28;20049;-61
2023/03/11 00:39:00;;;;;;;24.40;22.90;;;;;;;9.54;nan;96579.84;5019457;28;20057;-61
2023/03/11 00:41:27;;;;;;;19.30;18.23;;;;;;;9.56;nan;96596.75;5011281;28;20567;-61
2023/03/11 00:43:53;;;;;;;22.05;20.80;;;;;;;9.64;nan;96650.94;5013416;28;20076;-61
2023/03/11 00:46:19;;;;;;;;;;;;;;;8.74;nan;96675.56;5013071;28;20422;-60
2023/03/11 00:48:44;;;;;;;;;;;;;;;7.85;nan;96675.00;4998408;28;20283;-59
2023/03/11 00:51:13;;;;;;;;;;;;;;;7.76;nan;96661.72;4993744;28;19925;-60
2023/03/11 00:53:38;;;;;;;;;;;;;;;7.67;nan;96679.09;5009136;28;20039;-58
2023/03/11 00:56:11;;;;;;;;;;;;;;;7.57;nan;96705.81;5004568;28;19945;-60
2023/03/11 00:58:38;;;;;;;;;;;;;;;7.49;nan;96688.25;5012673;28;19945;-60
2023/03/11 01:01:08;;;;;;;;;;;;;;;7.33;nan;96721.16;5009026;28;19933;-61
2023/03/11 01:03:34;;;;;;;;;;;;;;;7.32;nan;96726.28;5010484;28;19925;-60
2023/03/11 01:05:59;;;;;;;;;;;;;;;7.37;nan;96761.81;5019311;28;19952;-60
2023/03/11 01:08:26;;;;;;;;;;;;;;;7.40;nan;96714.09;5012117;28;19929;-60
2023/03/11 01:10:54;;;;;;;;;;;;;;;7.37;nan;96736.31;5020157;28;19980;-61
2023/03/11 01:13:19;;;;;;;;;;;;;;;7.41;nan;96738.72;5012806;28;20660;-61
2023/03/11 01:15:45;;;;;;;;;;;;;;;7.38;nan;96748.19;5020762;28;20029;-60
2023/03/11 01:18:10;;;;;;;;;;;;;;;7.35;nan;96744.84;5012870;28;19972;-62
2023/03/11 01:20:37;;;;;;;;;;;;;;;7.32;nan;96759.44;5009522;28;19925;-61
2023/03/11 01:23:03;;;;;;;;;;;;;;;7.32;nan;96755.16;5008855;28;19925;-60
2023/03/11 01:25:29;;;;;;;;;;;;;;;7.33;nan;96756.00;5010699;28;19935;-62
2023/03/11 01:27:56;;;;;;;;;;;;;;;7.33;nan;96758.56;5012690;28;20036;-61
2023/03/11 01:30:23;;;;;;;;;;;;;;;7.40;nan;96751.50;5007788;28;19936;-61
2023/03/11 01:32:49;;;;;;;;;;;;;;;7.41;nan;96750.63;5016886;28;19932;-60
2023/03/11 01:35:17;;;;;;;;;;;;;;;7.34;nan;96776.31;5018420;28;19979;-61
2023/03/11 01:37:42;;;;;;;;;;;;;;;7.36;nan;96776.28;5009261;28;19933;-61
2023/03/11 01:40:11;;;;;;;;;;;;;;;7.31;nan;96728.00;5010051;28;19929;-60
2023/03/11 01:42:37;;;;;;;;;;;;;;;7.36;nan;96778.81;5008660;28;19947;-59
2023/03/11 01:45:23;;;;;;;;;;;;;;;7.42;nan;96777.78;5024698;28;19929;-61
2023/03/11 01:47:49;;;;;;;;;;;;;;;7.50;nan;96758.78;5010859;28;19929;-60
2023/03/11 01:50:14;;;;;;;;;;;;;;;7.54;nan;96787.53;5009542;28;20301;-60
2023/03/11 01:52:41;;;;;;;;;;;;;;;7.54;nan;96805.38;5006952;28;20072;-59
2023/03/11 01:55:07;;;;;;;;;;;;;;;7.55;nan;96812.16;4994895;28;20488;-59
2023/03/11 01:57:33;;;;;;;;;;;;;;;7.57;nan;96792.50;5017949;28;19936;-60
2023/03/11 02:00:01;;;;;;;;;;;;;;;7.52;nan;96802.03;5009941;28;19978;-60
2023/03/11 02:02:39;;;;;;;;;;;;;;;7.38;nan;96788.97;5007776;28;20450;-60
2023/03/11 02:05:06;;;;;;;;;;;;;;;7.24;nan;96797.94;5011023;28;19926;-63
2023/03/11 02:07:31;;;;;;;;;;;;;;;7.18;nan;96800.69;5025674;28;20472;-60
2023/03/11 02:09:57;;;;;;;;;;;;;;;7.01;nan;96809.81;5009166;28;20063;-61
2023/03/11 02:12:24;;;;;;;;;;;;;;;6.83;nan;96809.53;5007160;28;19925;-60
2023/03/11 02:14:50;;;;;;;;;;;;;;;6.73;nan;96769.16;5009130;28;19940;-60
2023/03/11 02:17:16;;;;;;;;;;;;;;;6.62;nan;96814.53;5007429;28;20032;-58
2023/03/11 02:19:53;;;;;;;;;;;;;;;6.38;nan;96804.25;5013633;28;19925;-59
2023/03/11 02:22:19;;;;;;;;;;;;;;;6.33;nan;96817.97;5006642;28;20463;-60
2023/03/11 02:25:00;;;;;;;;;;;;;;;6.27;nan;96797.84;5010328;28;20377;-60
2023/03/11 02:27:26;;;;;;;;;;;;;;;6.23;nan;96826.78;5009442;28;19925;-59
2023/03/11 02:29:55;;;;;;;;;;;;;;;6.19;nan;96833.69;5011483;28;20243;-59
2023/03/11 02:32:21;;;;;;;;;;;;;;;6.12;nan;96846.63;5014402;28;19925;-60
2023/03/11 02:34:47;;;;;;;;;;;;;;;5.89;nan;96825.28;5008098;28;19971;-60
2023/03/11 02:37:14;;;;;;;;;;;;;;;5.74;nan;96860.44;5008576;28;19928;-59
2023/03/11 02:39:45;;;;;;;;;;;;;;;5.44;nan;96845.16;5008233;28;19954;-59
2023/03/11 02:42:16;;;;;;;;;;;;;;;5.26;nan;96858.34;5020393;28;20289;-59
2023/03/11 02:44:42;;;;;;;;;;;;;;;5.12;nan;96880.75;5007830;28;19925;-59
2023/03/11 02:47:09;;;;;;;;;;;;;;;4.65;nan;96873.47;5007796;28;20024;-59
2023/03/11 02:49:35;;;;;;;;;;;;;;;4.52;nan;96861.09;5014512;28;19929;-59
2023/03/11 02:52:01;;;;;;;;;;;;;;;4.37;nan;96886.00;5006935;28;19929;-59
2023/03/11 02:54:28;;;;;;;;;;;;;;;4.37;nan;96871.56;5008136;28;19925;-62
2023/03/11 02:56:55;;;;;;;;;;;;;;;4.39;nan;96874.09;5010841;28;19945;-60
2023/03/11 02:59:21;;;;;;;;;;;;;;;4.36;nan;96882.63;5010878;28;19929;-61
2023/03/11 03:01:47;;;;;;;;;;;;;;;4.37;nan;96874.09;5010009;28;20316;-60
2023/03/11 03:04:12;;;;;;;;;;;;;;;4.40;nan;96870.69;5012025;28;19925;-59
2023/03/11 03:06:38;;;;;;;;;;;;;;;4.42;nan;96869.78;5014768;28;19930;-58
2023/03/11 03:09:04;;;;;;;;;;;;;;;4.44;nan;96857.06;5006240;28;19929;-60
2023/03/11 03:11:29;;;;;;;;;;;;;;;4.44;nan;96864.69;5007758;28;20303;-60
2023/03/11 03:13:55;;;;;;;;;;;;;;;4.40;nan;96868.16;5009860;28;20362;-60
2023/03/11 03:16:20;;;;;;;;;;;;;;;4.46;nan;96884.06;5015494;28;20393;-61
2023/03/11 03:18:46;;;;;;;;;;;;;;;4.45;nan;96866.34;5024919;28;20012;-59
2023/03/11 03:21:12;;;;;;;;;;;;;;;4.46;nan;96860.38;5009373;28;19948;-61
2023/03/11 03:23:38;;;;;;;;;;;;;;;4.44;nan;96870.59;5011275;28;19928;-61
2023/03/11 03:26:04;;;;;;;;;;;;;;;4.48;nan;96858.66;5018195;28;19988;-59
2023/03/11 03:28:32;;;;;;;;;;;;;;;4.49;nan;96870.47;5006039;28;19983;-59
2023/03/11 03:31:04;;;;;;;;;;;;;;;4.47;nan;96856.97;5010391;28;19930;-60
2023/03/11 03:33:31;;;;;;;;;;;;;;;4.49;nan;96847.66;5018926;28;20145;-60
2023/03/11 03:35:57;;;;;;;;;;;;;;;4.48;nan;96854.41;5011987;28;20446;-60
2023/03/11 03:38:26;;;;;;;;;;;;;;;4.42;nan;96835.94;5010327;28;19936;-60
2023/03/11 03:40:52;;;;;;;;;;;;;;;4.41;nan;96806.41;5008595;28;19929;-60
2023/03/11 03:43:19;;;;;;;;;;;;;;;4.37;nan;96843.66;5013197;28;20486;-59
2023/03/11 03:45:54;;;;;;;;;;;;;;;4.40;nan;96841.09;5009332;28;19933;-60
2023/03/11 03:48:19;;;;;;;;;;;;;;;4.41;nan;96830.03;5007598;28;19925;-61
2023/03/11 03:50:46;;;;;;;;;;;;;;;4.45;nan;96861.28;5018401;28;19952;-61
2023/03/11 03:53:14;;;;;;;;;;;;;;;4.43;nan;96830.84;5009692;28;19935;-59
2023/03/11 03:55:40;;;;;;;;;;;;;;;4.37;nan;96883.44;5010995;28;20377;-60
2023/03/11 03:58:06;;;;;;;;;;;;;;;4.33;nan;96869.16;5014991;28;20430;-60
2023/03/11 04:00:33;;;;;;;;;;;;;;;4.30;nan;96857.38;5006663;28;20315;-62
2023/03/11 04:03:01;;;;;;;;;;;;;;;4.29;nan;96843.00;5014933;28;19976;-60
2023/03/11 04:05:38;;;;;;;;;;;;;;;4.26;nan;96903.13;5009684;28;20151;-60
2023/03/11 04:08:04;;;;;;;;;;;;;;;4.23;nan;96860.94;5008930;28;19935;-60
2023/03/11 04:10:29;;;;;;;;;;;;;;;4.15;nan;96862.81;4994503;28;20296;-60
2023/03/11 04:12:55;;;;;;;;;;;;;;;4.18;nan;96880.47;5019041;28;19925;-59
2023/03/11 04:15:20;;;;;;;;;;;;;;;4.10;nan;96855.28;5014497;28;19925;-60
2023/03/11 04:17:46;;;;;;;;;;;;;;;3.99;nan;96881.72;5015585;28;19980;-60
2023/03/11 04:20:12;;;;;;;;;;;;;;;3.93;nan;96875.09;5009963;28;19929;-61
2023/03/11 04:22:38;;;;;;;;;;;;;;;3.83;nan;96895.59;5015401;28;19978;-59
2023/03/11 04:25:05;;;;;;;;;;;;;;;3.75;nan;96898.28;5010288;28;19933;-59
2023/03/11 04:27:31;;;;;;;;;;;;;;;3.68;nan;96884.09;5017887;28;19929;-59
2023/03/11 04:29:57;;;;;;;;;;;;;;;3.74;nan;96850.16;5011010;28;20333;-59
2023/03/11 04:32:23;;;;;;;;;;;;;;;3.77;nan;96885.59;5018568;28;20040;-62
2023/03/11 04:34:49;;;;;;;;;;;;;;;3.64;nan;96903.59;5014971;28;19990;-60
2023/03/11 04:37:15;;;;;;;;;;;;;;;3.63;nan;96891.78;5020939;28;19934;-58
2023/03/11 04:39:41;;;;;;;;;;;;;;;3.62;nan;96882.50;5015155;28;19929;-59
2023/03/11 04:42:07;;;;;;;;;;;;;;;3.59;nan;96887.63;5014692;28;19975;-61
2023/03/11 04:44:34;;;;;;;;;;;;;;;3.57;nan;96831.06;5016515;28;19926;-60
2023/03/11 04:47:00;;;;;;;;;;;;;;;3.60;nan;96891.00;5011770;28;20056;-60
2023/03/11 04:49:25;;;;;;;;;;;;;;;3.55;nan;96880.13;5021138;28;19952;-59
2023/03/11 04:51:51;;;;;;;;;;;;;;;3.54;nan;96883.50;5013069;28;20390;-60
2023/03/11 04:54:19;;;;;;;;;;;;;;;3.51;nan;96883.56;5019987;28;19921;-59
2023/03/11 04:56:45;;;;;;;;;;;;;;;3.50;nan;96875.13;5012396;28;19979;-58
2023/03/11 04:59:10;;;;;;;;;;;;;;;3.47;nan;96917.44;5012329;28;20300;-59
2023/03/11 05:01:39;;;;;;;;;;;;;;;3.45;nan;96844.00;5010960;28;19933;-59
2023/03/11 05:04:07;;;;;;;;;;;;;;;3.47;nan;96900.53;5019484;28;19972;-60
2023/03/11 05:06:32;;;;;;;;;;;;;;;3.47;nan;96864.25;5016227;28;19937;-59
2023/03/11 05:09:00;;;;;;;;;;;;;;;3.36;nan;96851.75;5013899;28;19936;-59
2023/03/11 05:11:26;;;;;;;;;;;;;;;3.39;nan;96883.81;5013436;28;20366;-56
2023/03/11 05:13:51;;;;;;;;;;;;;;;3.43;nan;96916.66;5007549;28;19929;-58
2023/03/11 05:16:18;;;;;;;;;;;;;;;3.37;nan;96914.22;5007182;28;19936;-58
2023/03/11 05:18:44;;;;;;;;;;;;;;;3.38;nan;96910.00;5015652;28;19997;-58
2023/03/11 05:21:12;;;;;;;;;;;;;;;3.38;nan;96907.47;5016173;28;20008;-60
2023/03/11 05:23:38;;;;;;;;;;;;;;;3.38;nan;96874.53;5014620;28;19938;-60
2023/03/11 05:26:04;;;;;;;;;;;;;;;3.40;nan;96895.59;5016607;28;19968;-60
2023/03/11 05:28:31;;;;;;;;;;;;;;;3.36;nan;96874.56;5013791;28;20257;-59
2023/03/11 05:30:56;;;;;;;;;;;;;;;3.36;nan;96849.22;5007763;28;19929;-61
2023/03/11 05:33:22;;;;;;;;;;;;;;;3.37;nan;96895.66;5011479;28;20034;-60
2023/03/11 05:35:50;;;;;;;;;;;;;;;3.40;nan;96858.44;5010610;28;19929;-59
2023/03/11 05:38:17;;;;;;;;;;;;;;;3.36;nan;96874.56;5002777;28;20468;-59
2023/03/11 05:40:43;;;;;;;;;;;;;;;3.36;nan;96849.22;5004931;28;19932;-60
2023/03/11 05:43:08;;;;;;;;;;;;;;;3.37;nan;96848.38;5007580;28;19986;-60
2023/03/11 05:45:37;;;;;;;;;;;;;;;3.33;nan;96876.31;5018597;28;19928;-60
2023/03/11 05:48:03;;;;;;;;;;;;;;;3.36;nan;96851.75;5010467;28;20028;-59
2023/03/11 05:50:29;;;;;;;;;;;;;;;3.36;nan;96876.25;5015108;28;19925;-59
2023/03/11 05:52:54;;;;;;;;;;;;;;;3.35;nan;96869.53;5009632;28;19987;-59
2023/03/11 05:55:21;;;;;;;;;;;;;;;3.34;nan;96855.19;4998576;28;20253;-60
2023/03/11 05:57:49;;;;;;;;;;;;;;;3.38;nan;96847.53;5018114;28;20323;-61
2023/03/11 06:00:15;;;;;;;;;;;;;;;3.42;nan;96853.34;5010207;28;20397;-60
2023/03/11 06:02:44;;;;;;;;;;;;;;;3.42;nan;96854.19;5018188;28;19984;-59
2023/03/11 06:05:13;;;;;;;;;;;;;;;3.41;nan;96859.28;5012717;28;19936;-60
2023/03/11 06:07:39;;;;;;;;;;;;;;;3.33;nan;96877.16;5014547;28;25139;-60
2023/03/11 06:10:06;;;;;;;;;;;;;;;3.30;nan;96868.78;5008958;28;19936;-61
2023/03/11 06:12:35;;;;;;;;;;;;;;;3.27;nan;96874.72;5019211;28;19921;-60
2023/03/11 06:15:09;;;;;;;;;;;;;;;3.36;nan;96953.06;5017800;28;20066;-57
2023/03/11 06:17:37;;;;;;;;;;;;;;;3.33;nan;96876.31;5013807;28;25097;-58
2023/03/11 06:20:04;;;;;;;;;;;;;;;3.40;nan;96886.31;5009689;28;19925;-59
2023/03/11 06:22:31;;;;;;;;;;;;;;;3.43;nan;96860.94;5009546;28;20022;-60
2023/03/11 06:24:57;;;;;;;;;;;;;;;3.44;nan;96867.66;5008707;28;20384;-58
2023/03/11 06:27:23;;;;;;;;;;;;;;;3.50;nan;96885.28;5015673;28;19979;-59
2023/03/11 06:29:53;;;;;;;;;;;;;;;3.54;nan;96931.63;5009330;28;25155;-55
2023/03/11 06:32:19;;;;;;;;;;;;;;;3.54;nan;96891.09;5008459;28;20013;-57
2023/03/11 06:34:48;;;;;;;;;;;;;;;3.56;nan;96909.66;5008442;28;20401;-63
2023/03/11 06:37:14;;;;;;;;;;;;;;;3.66;nan;96893.41;5009275;28;19970;-57
2023/03/11 06:39:39;;;;;;;;;;;;;;;3.68;nan;96938.13;5007769;28;20487;-55
2023/03/11 06:42:08;;;;;;;;;;;;;;;3.70;nan;96917.81;5017206;28;20027;-56
2023/03/11 06:44:34;;;;;;;;;;;;;;;3.68;nan;96911.94;5024645;28;19925;-57
2023/03/11 06:47:01;;;;;;;;;;;;;;;3.76;nan;96937.97;5008095;28;19925;-53
2023/03/11 06:49:26;;;;;;;;;;;;;;;3.77;nan;96957.41;5006595;28;20040;-56
2023/03/11 06:51:52;;;;;;;;;;;;;;;3.72;nan;96917.78;5005962;28;20329;-58
2023/03/11 06:54:17;;;;;;;;;;;;;;;3.82;nan;96942.91;5008379;28;19925;-56
2023/03/11 06:56:43;;;;;;;;;;;;;;;3.79;nan;96909.19;5009171;28;19925;-56
2023/03/11 06:59:09;;;;;;;;;;;;;;;3.82;nan;96931.97;5022059;28;20023;-54
2023/03/11 07:01:35;;;;;;;;;;;;;;;3.88;nan;96962.25;5011005;28;19932;-54
2023/03/11 07:04:03;;;;;;;;;;;;;;;3.93;nan;96951.16;5016312;28;20310;-55
2023/03/11 07:06:30;;;;;;;;;;;;;;;3.94;nan;96957.06;5016986;28;19932;-55
2023/03/11 07:09:08;;;;;;;;;;;;;;;4.08;nan;97001.53;5013518;28;19957;-55
2023/03/11 07:11:37;;;;;;;;;;;;;;;3.97;nan;97028.81;5011154;28;19971;-56
2023/03/11 07:14:07;;;;;;;;;;;;;;;4.05;nan;96994.00;5013961;28;19917;-57
2023/03/11 07:16:37;;;;;;;;;;;;;;;4.06;nan;97048.09;5007917;28;20041;-58
2023/03/11 07:19:08;;;;;;;;;;;;;;;4.15;nan;96999.75;5014277;28;19928;-54
2023/03/11 07:21:33;;;;;;;;;;;;;;;4.13;nan;97080.91;5012343;28;20559;-54
2023/03/11 07:24:01;;;;;;;1.30;1.20;;;;;;;4.04;nan;96982.19;5009108;28;20529;-56
2023/03/11 07:26:27;;;;;;;;;;;;;;;4.22;nan;97005.50;5007556;28;20439;-57
2023/03/11 07:28:53;;;;;;;;;;;;;;;4.14;nan;97064.84;5009022;28;20785;-56
2023/03/11 07:31:22;;;;;;;;;;;;;;;4.10;nan;96996.47;5011124;28;20099;-58
2023/03/11 07:33:47;;;;;;;;;;;;;;;4.21;nan;96991.16;5009642;28;19921;-56
2023/03/11 07:36:14;;;;;;;;;;;;;;;4.19;nan;97036.84;5007785;28;20365;-54
2023/03/11 07:38:40;;;;;;;;;;;;;;;4.22;nan;96983.53;5007728;28;19924;-56
2023/03/11 07:41:05;;;;;;;;;;;;;;;4.28;nan;96970.72;5008513;28;19952;-56
2023/03/11 07:43:31;;;;;;;;;;;;;;;4.32;nan;96986.72;5008668;28;19924;-55
2023/03/11 07:46:03;;;;;;;;;;;;;;;4.32;nan;97002.78;5012146;28;19968;-54
2023/03/11 07:48:28;;;;;;;;;;;;;;;4.25;nan;96970.78;5015995;28;19921;-56
2023/03/11 07:51:04;;;;;;;;;;;;;;;4.28;nan;97001.16;5015982;28;20368;-56
2023/03/11 07:53:29;;;;;;;;;;;;;;;4.40;nan;96995.00;5011006;28;19978;-55
2023/03/11 07:55:56;;;;;;;;;;;;;;;4.35;nan;96995.09;5009776;28;20360;-56
2023/03/11 07:58:21;;;;;;;;;;;;;;;4.45;nan;97003.34;5012745;28;19976;-55
2023/03/11 08:00:47;;;;;;;;;;;;;;;4.46;nan;96993.16;5013806;28;20103;-58
2023/03/11 08:03:12;;;;;;;;;;;;;;;4.30;nan;96999.41;5018362;28;19925;-52
2023/03/11 08:05:38;;;;;;;;;;;;;;;4.35;nan;96989.19;4993833;28;20347;-54
2023/03/11 08:08:03;;;;;;;;;;;;;;;4.38;nan;96986.56;5011705;28;19932;-55
2023/03/11 08:10:29;;;;;;;;;;;;;;;4.52;nan;96995.56;5012057;28;19972;-55
2023/03/11 08:12:54;;;;;;;;;;;;;;;4.60;nan;97010.63;5013901;28;19972;-56
2023/03/11 08:15:20;;;;;;;;;;;;;;;4.56;nan;97026.78;5009176;28;19972;-57
2023/03/11 08:17:45;;;;;;;;;;;;;;;4.67;nan;97022.31;5007977;28;19925;-56
2023/03/11 08:20:11;;;;;;;;;;;;;;;4.63;nan;97028.31;5012576;28;20091;-57
2023/03/11 08:22:37;;;;;;;;;;;;;;;4.60;nan;97054.59;5018348;28;19932;-54
2023/03/11 08:25:03;;;;;;;;;;;;;;;4.63;nan;97047.78;5011598;28;19925;-60
2023/03/11 08:27:28;;;;;;;;;;;;;;;4.64;nan;97039.31;5013270;28;19932;-55
2023/03/11 08:29:54;;;;;;;;;;;;;;;4.66;nan;97058.72;5012310;28;19972;-55
2023/03/11 08:32:19;;;;;;;;;;;;;;;4.72;nan;97100.88;5012017;28;19926;-56
2023/03/11 08:34:45;;;;;;;;;;;;;;;4.71;nan;97081.47;5012049;28;20443;-55
2023/03/11 08:37:10;;;;;;;;;;;;;;;4.76;nan;97135.50;5012069;28;20550;-54
2023/03/11 08:39:36;;;;;;;;;;;;;;;4.60;nan;97120.59;5020298;28;19976;-57
2023/03/11 08:42:02;;;;;;;;;;;;;;;4.51;nan;97100.47;5011909;28;19990;-56
2023/03/11 08:44:28;;;;;;;;;;;;;;;4.58;nan;97111.34;5012019;28;20295;-56
2023/03/11 08:46:53;;;;;;;;;;;;;;;4.68;nan;97128.03;5011640;28;19995;-55
2023/03/11 08:49:19;;;;;;;;;;;;;;;4.85;nan;97160.72;5008886;28;19924;-58
2023/03/11 08:51:44;;;;;;;;;;;;;;;4.97;nan;97191.75;5017487;28;19996;-55
2023/03/11 08:54:10;;;;;;;;;;;;;;;4.93;nan;97166.47;5011350;28;20269;-56
2023/03/11 08:56:36;;;;;;;;;;;;;;;4.80;nan;97154.88;5013600;28;20016;-53
2023/03/11 08:59:01;;;;;;;;;;;;;;;4.87;nan;97146.28;5008421;28;20423;-56
2023/03/11 09:01:28;;;;;;;;;;;;;;;5.12;nan;97175.41;5011117;28;19925;-58
2023/03/11 09:03:54;;;;;;;;;;;;;;;4.96;nan;97184.19;5008556;28;19948;-56
2023/03/11 09:06:20;;;;;;;;;;;;;;;5.00;nan;97181.56;5013486;28;19921;-54
2023/03/11 09:08:46;;;;;;;;;;;;;;;4.92;nan;97172.44;5028674;28;19967;-62
2023/03/11 09:11:12;;;;;;;;;;;;;;;4.89;nan;97192.78;5011627;28;19928;-59
2023/03/11 09:13:39;;;;;;;;;;;;;;;4.88;nan;97216.53;5014856;28;19925;-59
2023/03/11 09:16:11;;;;;;;;;;;;;;;4.66;nan;97233.84;5013327;28;20031;-59
2023/03/11 09:18:37;;;;;;;;;;;;;;;4.71;nan;97277.75;5010401;28;19948;-60
2023/03/11 09:21:02;;;;;;;;;;;;;;;4.70;nan;97227.84;5010437;28;19928;-60
2023/03/11 09:23:28;;;;;;;;;;;;;;;4.84;nan;97242.81;5009871;28;19975;-61
2023/03/11 09:25:53;;;;;;;;;;;;;;;4.82;nan;97239.47;5009877;28;20431;-59
2023/03/11 09:28:19;;;;;;;;;;;;;;;4.76;nan;97252.28;5010622;28;20482;-61
2023/03/11 09:30:44;;;;;;;;;;;;;;;4.83;nan;97241.16;5010713;28;19925;-59
2023/03/11 09:33:10;;;;;;;;;;;;;;;4.89;nan;97244.41;5009862;28;19995;-57
2023/03/11 09:35:36;;;;;;;;;;;;;;;4.95;nan;97251.91;5011235;28;19925;-61
2023/03/11 09:38:02;;;;;;;;;;;;;;;4.83;nan;97246.25;5013153;28;20281;-63
2023/03/11 09:40:31;;;;;;;;;;;;;;;4.72;nan;97281.97;5010328;28;19932;-60
2023/03/11 09:43:16;;;;;;;;;;;;;;;4.71;nan;97264.22;5010478;28;19956;-61
2023/03/11 09:45:46;;;;;;;;;;;;;;;4.76;nan;97252.28;5010204;28;19921;-62
2023/03/11 09:48:27;;;;;;;;;;;;;;;4.81;nan;97238.63;5010303;28;19928;-61
2023/03/11 09:51:07;;;;;;;;;;;;;;;4.90;nan;97268.09;5009327;28;19921;-63
2023/03/11 09:53:32;;;;;;;;;;;;;;;4.73;nan;97270.09;5014663;28;20355;-63
2023/03/11 09:55:58;;;;;;;;;;;;;;;4.86;nan;97287.63;5009772;28;19928;-62
2023/03/11 09:58:24;;;;;;;;;;;;;;;4.78;nan;97311.47;5005675;28;20167;-62
2023/03/11 10:00:51;;;;;;;;;;;;;;;4.77;nan;97295.41;5006344;28;20005;-62
2023/03/11 10:03:24;;;;;;;;;;;;;;;4.78;nan;97286.09;5010122;28;19925;-61
2023/03/11 10:05:50;;;;;;;;;;;;;;;4.77;nan;97312.34;5005539;28;20475;-63
2023/03/11 10:08:24;;;;;;;;;;;;;;;4.78;nan;97293.72;5007168;28;20459;-62
2023/03/11 10:11:07;;;;;;;;;;;;;;;4.81;nan;97316.50;5005493;28;19922;-62
2023/03/11 10:13:49;;;;;;;;;;;;;;;4.86;nan;97335.88;5007528;28;20439;-62
2023/03/11 10:16:21;;;;;;;;;;;;;;;4.81;nan;97311.41;5002642;28;19925;-62
2023/03/11 10:18:59;;;;;;;;;;;;;;;4.83;nan;97313.09;5006352;28;20392;-60
2023/03/11 10:21:39;;;;;;;;;;;;;;;4.80;nan;97319.91;5006258;28;19925;-60
2023/03/11 10:24:16;;;;;;;;;;;;;;;4.95;nan;97339.97;5005744;28;19933;-62
2023/03/11 10:26:51;;;;;;;;;;;;;;;4.71;nan;97368.31;5009955;28;19921;-61
2023/03/11 10:29:31;;;;;;;;;;;;;;;4.67;nan;97323.53;5012873;28;19964;-60
2023/03/11 10:32:04;;;;;;;;;;;;;;;4.63;nan;97334.56;5003785;28;20376;-61
2023/03/11 10:34:51;;;;;;;;;;;;;;;4.69;nan;97357.31;5008523;28;19921;-64
2023/03/11 10:37:23;;;;;;;;;;;;;;;4.67;nan;97333.69;5006122;28;19960;-61
2023/03/11 10:39:49;;;;;;;;;;;;;;;4.72;nan;97331.88;5007756;28;19982;-61
2023/03/11 10:42:17;;;;;;;;;;;;;;;4.84;nan;97350.28;5010685;28;19934;-63
2023/03/11 10:44:43;;;;;;;;;;;;;;;4.87;nan;97362.94;5009740;28;19997;-61
2023/03/11 10:47:16;;;;;;;;;;;;;;;4.78;nan;97350.41;5009845;28;19940;-61
2023/03/11 10:49:41;;;;;;;;;;;;;;;5.00;nan;97354.25;5008021;28;19925;-63
2023/03/11 10:52:07;;;;;;;;;;;;;;;5.31;nan;97362.16;5005898;28;20273;-62
2023/03/11 10:54:34;;;;;;;;;;;;;;;5.58;nan;97350.63;5008636;28;19932;-61
2023/03/11 10:57:04;;;;;;;;;;;;;;;5.49;nan;97353.34;5010445;28;19927;-64
2023/03/11 10:59:32;;;;;;;;;;;;;;;5.56;nan;97359.16;5008120;28;20176;-63
2023/03/11 11:01:57;;;;;;;;;;;;;;;5.33;nan;97355.34;5005712;28;20402;-64
2023/03/11 11:04:49;;;;;;;;;;;;;;;5.20;nan;97361.50;5006125;28;19927;-64
2023/03/11 11:07:35;;;;;;;;;;;;;;;5.19;nan;97374.22;5008899;28;19947;-66
2023/03/11 11:10:19;;;;;;;;;;;;;;;5.21;nan;97377.59;5005222;28;20376;-60
2023/03/11 11:13:15;;;;;;;;;;;;;;;5.25;nan;97374.97;5007692;28;19924;-61
2023/03/11 11:15:57;;;;;;;;;;;;;;;5.02;nan;97364.38;5004990;28;20024;-60
2023/03/11 11:18:26;;;;;;;;;;;;;;;4.93;nan;97387.38;5008085;28;20168;-61
2023/03/11 11:21:12;;;;;;;;;;;;;;;4.88;nan;97372.22;5010232;28;19948;-60
2023/03/11 11:23:46;;;;;;;;;;;;;;;4.88;nan;97395.06;5009237;28;19922;-62
2023/03/11 11:26:15;;;;;;;;;;;;;;;4.89;nan;97396.75;5008737;28;19928;-59
2023/03/11 11:28:41;;;;;;;;;;;;;;;4.90;nan;97393.34;5011002;28;20104;-60
2023/03/11 11:31:18;;;;;;;;;;;;;;;4.82;nan;97394.34;5011921;28;19940;-61
2023/03/11 11:34:01;;;;;;;;;;;;;;;4.78;nan;97395.25;5012391;28;19975;-60
2023/03/11 11:36:28;;;;;;;;;;;;;;;4.82;nan;97394.34;5011189;28;19928;-60
2023/03/11 11:38:54;;;;;;;;;;;;;;;4.79;nan;97387.63;5012071;28;19921;-59
2023/03/11 11:41:22;;;;;;;;;;;;;;;4.79;nan;97402.88;5011006;28;19987;-60
2023/03/11 11:43:56;;;;;;;;;;;;;;;4.78;nan;97382.56;5006453;28;20304;-59
2023/03/11 11:46:37;;;;;;;;;;;;;;;4.70;nan;97404.69;5009248;28;19922;-59
2023/03/11 11:49:08;;;;;;;;;;;;;;;4.72;nan;97405.50;5010818;28;20025;-62
2023/03/11 11:51:39;;;;;;;;;;;;;;;4.75;nan;97396.16;5012976;28;19925;-59
2023/03/11 11:54:40;;;;;;;;;;;;;;;4.78;nan;97398.63;5012375;28;19995;-59
2023/03/11 11:57:13;;;;;;;;;;;;;;;4.88;nan;97394.25;4989138;28;19922;-60
2023/03/11 11:59:39;;;;;;;;;;;;;;;4.84;nan;97398.53;4987976;28;20071;-59
2023/03/11 12:02:04;;;;;;;;;;;;;;;4.76;nan;97392.72;4988101;28;20039;-61
2023/03/11 12:04:48;;;;;;;;;;;;;;;4.64;nan;97399.72;4986164;28;19921;-58
2023/03/11 12:07:20;;;;;;;;;;;;;;;4.70;nan;97395.38;4986346;28;19921;-59
2023/03/11 12:09:51;;;;;;;;;;;;;;;4.71;nan;97429.22;4988174;28;19927;-60
2023/03/11 12:12:31;;;;;;;;;;;;;;;4.65;nan;97396.31;4971859;28;19922;-59
2023/03/11 12:14:57;;;;;;;;;;;;;;;4.61;nan;97408.22;4987649;28;19921;-61
2023/03/11 12:17:23;;;;;;;;;;;;;;;4.67;nan;97399.69;4988314;28;19928;-59
2023/03/11 12:19:51;;;;;;;;;;;;;;;4.61;nan;97420.91;4989257;28;19924;-59
2023/03/11 12:22:40;;;;;;;;;;;;;;;4.49;nan;97419.41;4988052;28;20504;-59
2023/03/11 12:25:21;;;;;;;;;;;;;;;4.66;nan;97431.84;4913505;29;19923;-58
2023/03/11 12:27:46;;;;;;;;;;;;;;;4.49;nan;97437.16;4914009;29;19919;-59
2023/03/11 12:30:15;;;;;;;;;;;;;;;4.54;nan;97432.03;4917731;28;19930;-59
2023/03/11 12:32:53;;;;;;;;;;;;;;;4.66;nan;97434.38;4964814;28;20024;-60
2023/03/11 12:35:29;;;;;;;;;;;;;;;4.80;nan;97434.13;4966162;28;19929;-61
2023/03/11 12:38:04;;;;;;;;;;;;;;;4.76;nan;97430.81;4963366;28;20380;-59
2023/03/11 12:40:56;;;;;;;;;;;;;;;4.76;nan;97432.50;4941654;28;19957;-61
2023/03/11 12:43:32;;;;;;;;;;;;;;;4.80;nan;97429.06;4963013;28;20831;-60
2023/03/11 12:46:01;;;;;;;;;;;;;;;4.79;nan;97450.25;4963532;28;20001;-59
2023/03/11 12:48:34;;;;;;;;;;;;;;;4.96;nan;97433.91;4966137;28;20017;-59
2023/03/11 12:51:00;;;;;;;;;;;;;;;4.96;nan;97438.16;4965643;28;19922;-61
2023/03/11 12:53:40;;;;;;;;;;;;;;;4.87;nan;97469.59;4966200;28;20440;-61
2023/03/11 12:56:18;;;;;;;;;;;;;;;4.81;nan;97453.59;4965637;28;19926;-60
2023/03/11 12:59:02;;;;;;;;;;;;;;;4.98;nan;97447.41;4966761;28;20114;-59
2023/03/11 13:01:47;;;;;;;;;;;;;;;4.74;nan;97485.03;4975495;28;19926;-59
2023/03/11 13:04:21;;;;;;;;;;;;;;;4.71;nan;97462.22;5011231;28;20016;-60
2023/03/11 13:07:11;;;;;;;;;;;;;;;4.74;nan;97483.31;5010135;28;19979;-60
2023/03/11 13:09:37;;;;;;;;;;;;;;;4.76;nan;97479.06;5010661;28;20072;-59
2023/03/11 13:12:02;;;;;;;;;;;;;;;4.79;nan;97486.66;5010982;28;20389;-60
2023/03/11 13:14:32;;;;;;;;;;;;;;;4.82;nan;97483.22;5011290;28;20499;-59
2023/03/11 13:17:17;;;;;;;;;;;;;;;4.78;nan;97495.13;5010773;28;20361;-60
2023/03/11 13:19:47;;;;;;;;;;;;;;;4.81;nan;97495.06;5011494;28;19924;-59
2023/03/11 13:22:32;;;;;;;;;;;;;;;4.80;nan;97501.00;5010866;28;20020;-59